This is the latest recevied weather packets stored in our database for station/object KC1TEM-13. If no packets are shown the sender has not sent any weather packets the latest 10 day(s).
| Time | Temp. | Humidity | Pressure | Rain* | Wind** | Luminosity | Snow |
|---|---|---|---|---|---|---|---|
| 1777863792 | 3.33° C | 70% | 1009.9 hPa | 0 mm | - | 0 W/m² | - |
| 1777863488 | 3.33° C | 72% | 1009.9 hPa | 0 mm | - | 0 W/m² | - |
| 1777847126 | 11.11° C | 37% | 1007.2 hPa | 0 mm | - | 41 W/m² | - |
| 1777846824 | 11.11° C | 37% | 1007.2 hPa | 0 mm | - | 73 W/m² | - |
| 1777846522 | 11.11° C | 36% | 1007 hPa | 0 mm | - | 63 W/m² | - |
| 1777845612 | 11.11° C | 36% | 1006.9 hPa | 0 mm | - | 94 W/m² | - |
| 1777845309 | 11.11° C | 37% | 1007 hPa | 0 mm | - | 94 W/m² | - |
| 1777844099 | 11.11° C | 39% | 1006.8 hPa | 0 mm | - | 96 W/m² | - |
| 1777843795 | 11.11° C | 37% | 1006.8 hPa | 0 mm | - | 87 W/m² | - |
| 1777841974 | 11.67° C | 36% | 1006.1 hPa | 0 mm | - | 71 W/m² | - |
| 1777840762 | 11.11° C | 39% | 1006 hPa | 0 mm | - | 120 W/m² | - |
| 1777840156 | 11.11° C | 41% | 1005.9 hPa | 0 mm | - | 71 W/m² | - |
| 1777839854 | 11.11° C | 40% | 1005.9 hPa | 0 mm | - | 66 W/m² | - |
| 1777839552 | 11.67° C | 41% | 1005.8 hPa | 0 mm | - | 66 W/m² | - |
| 1777835303 | 12.78° C | 44% | 1006 hPa | 0 mm | - | 368 W/m² | - |
| 1777834394 | 12.22° C | 41% | 1006.1 hPa | 0 mm | - | 436 W/m² | - |
| 1777833486 | 12.78° C | 42% | 1006.2 hPa | 0 mm | - | 474 W/m² | - |
| 1777833183 | 12.22° C | 44% | 1006 hPa | 0 mm | - | 613 W/m² | - |
| 1777832276 | 10.56° C | 48% | 1006 hPa | 0 mm | - | 559 W/m² | - |
| 1777831973 | 10.56° C | 50% | 1006.2 hPa | 0 mm | - | 231 W/m² | - |
| 1777827128 | 9.44° C | 58% | 1006.1 hPa | 0 mm | - | 280 W/m² | - |
| 1777826217 | 8.89° C | 61% | 1006.2 hPa | 0 mm | - | 164 W/m² | - |
| 1777825915 | 8.89° C | 63% | 1006.2 hPa | 0 mm | - | 128 W/m² | - |
| 1777825310 | 8.89° C | 64% | 1006.1 hPa | 0 mm | - | 82 W/m² | - |
| 1777825007 | 8.89° C | 65% | 1006.1 hPa | 0 mm | - | 101 W/m² | - |
* Rain latest hour (hover to see other rain measurements)
** Current wind speed in m/s (hover to see current wind gust speed)